sensor_id;sensor_type;location;lat;lon;timestamp;temperature;humidity
54796;DHT22;40693;43.884;20.340;2022-12-08T00:01:07;231.00;2252.80
54796;DHT22;40693;43.884;20.340;2022-12-08T00:03:33;231.00;2252.80
54796;DHT22;40693;43.884;20.340;2022-12-08T00:06:00;230.90;2252.80
54796;DHT22;40693;43.884;20.340;2022-12-08T00:08:44;231.00;2252.80
54796;DHT22;40693;43.884;20.340;2022-12-08T00:11:28;230.90;2252.80
54796;DHT22;40693;43.884;20.340;2022-12-08T00:13:54;230.90;2252.80
54796;DHT22;40693;43.884;20.340;2022-12-08T00:16:19;230.90;2252.80
54796;DHT22;40693;43.884;20.340;2022-12-08T00:18:45;230.90;2252.80
54796;DHT22;40693;43.884;20.340;2022-12-08T00:21:10;230.80;2252.80
54796;DHT22;40693;43.884;20.340;2022-12-08T00:23:36;230.90;2252.80
54796;DHT22;40693;43.884;20.340;2022-12-08T00:26:05;230.90;2252.80
54796;DHT22;40693;43.884;20.340;2022-12-08T00:28:31;230.80;2252.80
54796;DHT22;40693;43.884;20.340;2022-12-08T00:30:56;230.80;2252.80
54796;DHT22;40693;43.884;20.340;2022-12-08T00:33:22;230.80;2252.80
54796;DHT22;40693;43.884;20.340;2022-12-08T00:35:47;230.80;2252.80
54796;DHT22;40693;43.884;20.340;2022-12-08T00:38:13;230.80;2252.80
54796;DHT22;40693;43.884;20.340;2022-12-08T00:40:42;230.80;2252.80
54796;DHT22;40693;43.884;20.340;2022-12-08T00:43:08;230.80;2252.80
54796;DHT22;40693;43.884;20.340;2022-12-08T00:45:33;230.80;2252.80
54796;DHT22;40693;43.884;20.340;2022-12-08T00:47:59;230.80;2252.80
54796;DHT22;40693;43.884;20.340;2022-12-08T00:50:25;230.90;2252.80
54796;DHT22;40693;43.884;20.340;2022-12-08T00:52:50;230.80;2252.80
54796;DHT22;40693;43.884;20.340;2022-12-08T00:55:16;230.90;2252.80
54796;DHT22;40693;43.884;20.340;2022-12-08T00:57:41;230.90;2252.80
54796;DHT22;40693;43.884;20.340;2022-12-08T01:00:07;230.90;2252.80
54796;DHT22;40693;43.884;20.340;2022-12-08T01:02:33;230.90;2252.80
54796;DHT22;40693;43.884;20.340;2022-12-08T01:04:58;230.80;2252.80
54796;DHT22;40693;43.884;20.340;2022-12-08T01:07:24;230.90;2252.80
54796;DHT22;40693;43.884;20.340;2022-12-08T01:09:50;230.90;2252.80
54796;DHT22;40693;43.884;20.340;2022-12-08T01:12:15;230.90;2252.80
54796;DHT22;40693;43.884;20.340;2022-12-08T01:14:41;230.90;2252.80
54796;DHT22;40693;43.884;20.340;2022-12-08T01:17:06;230.80;2252.80
54796;DHT22;40693;43.884;20.340;2022-12-08T01:19:32;230.80;2252.80
54796;DHT22;40693;43.884;20.340;2022-12-08T01:21:58;230.80;2252.80
54796;DHT22;40693;43.884;20.340;2022-12-08T01:24:23;230.80;2252.80
54796;DHT22;40693;43.884;20.340;2022-12-08T01:26:49;230.90;2252.80
54796;DHT22;40693;43.884;20.340;2022-12-08T01:29:15;230.90;2252.80
54796;DHT22;40693;43.884;20.340;2022-12-08T01:31:41;230.90;2252.80
54796;DHT22;40693;43.884;20.340;2022-12-08T01:34:06;230.90;2252.80
54796;DHT22;40693;43.884;20.340;2022-12-08T01:36:33;231.00;2252.80
54796;DHT22;40693;43.884;20.340;2022-12-08T01:39:02;231.00;2252.80
54796;DHT22;40693;43.884;20.340;2022-12-08T01:41:29;231.00;2252.80
54796;DHT22;40693;43.884;20.340;2022-12-08T01:46:34;231.00;2252.80
54796;DHT22;40693;43.884;20.340;2022-12-08T01:49:09;230.80;2252.80
54796;DHT22;40693;43.884;20.340;2022-12-08T01:54:11;230.70;2252.80
54796;DHT22;40693;43.884;20.340;2022-12-08T01:56:41;230.70;2252.80
54796;DHT22;40693;43.884;20.340;2022-12-08T01:59:07;230.70;2252.80
54796;DHT22;40693;43.884;20.340;2022-12-08T02:01:33;230.70;2252.80
54796;DHT22;40693;43.884;20.340;2022-12-08T02:04:00;230.60;2252.80
54796;DHT22;40693;43.884;20.340;2022-12-08T02:06:27;230.60;2252.80
54796;DHT22;40693;43.884;20.340;2022-12-08T02:08:54;230.50;2252.80
54796;DHT22;40693;43.884;20.340;2022-12-08T02:11:20;230.50;2252.80
54796;DHT22;40693;43.884;20.340;2022-12-08T02:13:46;230.40;2252.80
54796;DHT22;40693;43.884;20.340;2022-12-08T02:16:19;230.40;2252.80
54796;DHT22;40693;43.884;20.340;2022-12-08T02:23:58;230.40;2252.80
54796;DHT22;40693;43.884;20.340;2022-12-08T02:34:16;230.40;2252.80
54796;DHT22;40693;43.884;20.340;2022-12-08T02:41:58;230.50;2252.80
54796;DHT22;40693;43.884;20.340;2022-12-08T02:44:40;230.40;2252.80
54796;DHT22;40693;43.884;20.340;2022-12-08T02:47:08;230.50;2252.80
54796;DHT22;40693;43.884;20.340;2022-12-08T02:49:35;230.50;2252.80
54796;DHT22;40693;43.884;20.340;2022-12-08T02:52:06;230.50;2252.80
54796;DHT22;40693;43.884;20.340;2022-12-08T02:54:32;230.50;2252.80
54796;DHT22;40693;43.884;20.340;2022-12-08T02:59:32;230.50;2252.80
54796;DHT22;40693;43.884;20.340;2022-12-08T03:04:45;230.50;2252.80
54796;DHT22;40693;43.884;20.340;2022-12-08T03:09:49;230.50;2252.80
54796;DHT22;40693;43.884;20.340;2022-12-08T03:15:02;230.50;2252.80
54796;DHT22;40693;43.884;20.340;2022-12-08T03:17:30;230.60;2252.80
54796;DHT22;40693;43.884;20.340;2022-12-08T03:19:57;230.60;2252.80
54796;DHT22;40693;43.884;20.340;2022-12-08T03:22:26;230.60;2252.80
54796;DHT22;40693;43.884;20.340;2022-12-08T03:24:52;230.60;2252.80
54796;DHT22;40693;43.884;20.340;2022-12-08T03:27:22;230.60;2252.80
54796;DHT22;40693;43.884;20.340;2022-12-08T03:29:49;230.60;2252.80
54796;DHT22;40693;43.884;20.340;2022-12-08T03:34:50;230.70;2252.80
54796;DHT22;40693;43.884;20.340;2022-12-08T03:37:16;230.60;2252.80
54796;DHT22;40693;43.884;20.340;2022-12-08T03:39:42;230.60;2252.80
54796;DHT22;40693;43.884;20.340;2022-12-08T03:42:08;230.60;2252.80
54796;DHT22;40693;43.884;20.340;2022-12-08T03:44:33;230.70;2252.80
54796;DHT22;40693;43.884;20.340;2022-12-08T03:46:59;230.60;2252.80
54796;DHT22;40693;43.884;20.340;2022-12-08T03:49:24;230.60;2252.80
54796;DHT22;40693;43.884;20.340;2022-12-08T03:51:50;230.70;2252.80
54796;DHT22;40693;43.884;20.340;2022-12-08T03:54:16;230.70;2252.80
54796;DHT22;40693;43.884;20.340;2022-12-08T03:56:41;230.70;2252.80
54796;DHT22;40693;43.884;20.340;2022-12-08T03:59:07;230.70;2252.80
54796;DHT22;40693;43.884;20.340;2022-12-08T04:01:33;230.50;2252.80
54796;DHT22;40693;43.884;20.340;2022-12-08T04:03:58;230.60;2252.80
54796;DHT22;40693;43.884;20.340;2022-12-08T04:06:24;230.60;2252.80
54796;DHT22;40693;43.884;20.340;2022-12-08T04:08:50;230.50;2252.80
54796;DHT22;40693;43.884;20.340;2022-12-08T04:11:16;230.50;2252.80
54796;DHT22;40693;43.884;20.340;2022-12-08T04:13:42;230.40;2252.80
54796;DHT22;40693;43.884;20.340;2022-12-08T04:16:12;230.50;2252.80
54796;DHT22;40693;43.884;20.340;2022-12-08T04:18:38;230.50;2252.80
54796;DHT22;40693;43.884;20.340;2022-12-08T04:21:04;230.40;2252.80
54796;DHT22;40693;43.884;20.340;2022-12-08T04:23:30;230.40;2252.80
54796;DHT22;40693;43.884;20.340;2022-12-08T04:25:56;205.70;2252.80
54796;DHT22;40693;43.884;20.340;2022-12-08T04:28:22;205.60;2252.80
54796;DHT22;40693;43.884;20.340;2022-12-08T04:30:48;205.60;2252.80
54796;DHT22;40693;43.884;20.340;2022-12-08T04:33:13;205.50;2252.80
54796;DHT22;40693;43.884;20.340;2022-12-08T04:35:39;205.40;2252.80
54796;DHT22;40693;43.884;20.340;2022-12-08T04:38:04;205.40;2252.80
54796;DHT22;40693;43.884;20.340;2022-12-08T04:40:30;205.30;2252.80
54796;DHT22;40693;43.884;20.340;2022-12-08T04:42:55;205.20;2252.80
54796;DHT22;40693;43.884;20.340;2022-12-08T04:45:21;205.20;2252.80
54796;DHT22;40693;43.884;20.340;2022-12-08T04:47:46;205.20;2252.80
54796;DHT22;40693;43.884;20.340;2022-12-08T04:50:12;205.20;2252.80
54796;DHT22;40693;43.884;20.340;2022-12-08T04:52:38;205.20;2252.80
54796;DHT22;40693;43.884;20.340;2022-12-08T04:55:04;205.30;2252.80
54796;DHT22;40693;43.884;20.340;2022-12-08T04:57:29;205.30;2252.80
54796;DHT22;40693;43.884;20.340;2022-12-08T04:59:55;205.10;2252.80
54796;DHT22;40693;43.884;20.340;2022-12-08T05:02:21;205.30;2252.80
54796;DHT22;40693;43.884;20.340;2022-12-08T05:04:46;205.30;2252.80
54796;DHT22;40693;43.884;20.340;2022-12-08T05:07:12;205.20;2252.80
54796;DHT22;40693;43.884;20.340;2022-12-08T05:09:37;205.30;2252.80
54796;DHT22;40693;43.884;20.340;2022-12-08T05:12:03;205.20;2252.80
54796;DHT22;40693;43.884;20.340;2022-12-08T05:14:29;205.20;2252.80
54796;DHT22;40693;43.884;20.340;2022-12-08T05:16:54;205.20;2252.80
54796;DHT22;40693;43.884;20.340;2022-12-08T05:19:20;205.10;2252.80
54796;DHT22;40693;43.884;20.340;2022-12-08T05:21:47;205.30;2252.80
54796;DHT22;40693;43.884;20.340;2022-12-08T05:24:12;205.10;2252.80
54796;DHT22;40693;43.884;20.340;2022-12-08T05:26:38;205.10;2252.80
54796;DHT22;40693;43.884;20.340;2022-12-08T05:29:03;205.10;2252.80
54796;DHT22;40693;43.884;20.340;2022-12-08T05:31:29;205.10;2252.80
54796;DHT22;40693;43.884;20.340;2022-12-08T05:33:55;205.00;2252.80
54796;DHT22;40693;43.884;20.340;2022-12-08T05:36:20;205.00;2252.80
54796;DHT22;40693;43.884;20.340;2022-12-08T05:38:46;205.00;2252.80
54796;DHT22;40693;43.884;20.340;2022-12-08T05:41:13;204.80;2252.80
54796;DHT22;40693;43.884;20.340;2022-12-08T05:43:38;204.80;2252.80
54796;DHT22;40693;43.884;20.340;2022-12-08T05:46:04;180.10;2252.80
54796;DHT22;40693;43.884;20.340;2022-12-08T05:48:29;180.10;2252.80
54796;DHT22;40693;43.884;20.340;2022-12-08T05:50:55;180.10;2252.80
54796;DHT22;40693;43.884;20.340;2022-12-08T05:53:21;180.10;2252.80
54796;DHT22;40693;43.884;20.340;2022-12-08T05:55:46;180.10;2252.80
54796;DHT22;40693;43.884;20.340;2022-12-08T05:58:13;180.10;2252.80
54796;DHT22;40693;43.884;20.340;2022-12-08T06:00:39;204.80;2252.80
54796;DHT22;40693;43.884;20.340;2022-12-08T06:03:05;204.80;2252.80
54796;DHT22;40693;43.884;20.340;2022-12-08T06:05:31;204.80;2252.80
54796;DHT22;40693;43.884;20.340;2022-12-08T06:07:57;204.80;2252.80
54796;DHT22;40693;43.884;20.340;2022-12-08T06:10:23;204.80;2252.80
54796;DHT22;40693;43.884;20.340;2022-12-08T06:12:48;204.80;2252.80
54796;DHT22;40693;43.884;20.340;2022-12-08T06:15:14;204.80;2252.80
54796;DHT22;40693;43.884;20.340;2022-12-08T06:17:39;204.80;2252.80
54796;DHT22;40693;43.884;20.340;2022-12-08T06:20:05;204.80;2252.80
54796;DHT22;40693;43.884;20.340;2022-12-08T06:22:31;204.80;2252.80
54796;DHT22;40693;43.884;20.340;2022-12-08T06:24:57;204.80;2252.80
54796;DHT22;40693;43.884;20.340;2022-12-08T06:27:23;205.10;2252.80
54796;DHT22;40693;43.884;20.340;2022-12-08T06:29:48;204.80;2252.80
54796;DHT22;40693;43.884;20.340;2022-12-08T06:32:14;204.80;2252.80
54796;DHT22;40693;43.884;20.340;2022-12-08T06:34:40;204.90;2252.80
54796;DHT22;40693;43.884;20.340;2022-12-08T06:37:05;204.90;2252.80
54796;DHT22;40693;43.884;20.340;2022-12-08T06:39:31;204.90;2252.80
54796;DHT22;40693;43.884;20.340;2022-12-08T06:41:56;205.00;2252.80
54796;DHT22;40693;43.884;20.340;2022-12-08T06:44:41;205.00;2252.80
54796;DHT22;40693;43.884;20.340;2022-12-08T06:47:06;205.00;2252.80
54796;DHT22;40693;43.884;20.340;2022-12-08T06:49:32;205.10;2252.80
54796;DHT22;40693;43.884;20.340;2022-12-08T06:51:58;205.20;2252.80
54796;DHT22;40693;43.884;20.340;2022-12-08T06:54:23;205.20;2252.80
54796;DHT22;40693;43.884;20.340;2022-12-08T06:56:49;205.20;2252.80
54796;DHT22;40693;43.884;20.340;2022-12-08T06:59:14;205.10;2252.80
54796;DHT22;40693;43.884;20.340;2022-12-08T07:01:41;205.20;2252.80
54796;DHT22;40693;43.884;20.340;2022-12-08T07:04:07;205.20;2252.80
54796;DHT22;40693;43.884;20.340;2022-12-08T07:06:33;205.20;2252.80
54796;DHT22;40693;43.884;20.340;2022-12-08T07:08:58;205.20;2252.80
54796;DHT22;40693;43.884;20.340;2022-12-08T07:11:24;205.20;2252.80
54796;DHT22;40693;43.884;20.340;2022-12-08T07:13:49;205.30;2252.80
54796;DHT22;40693;43.884;20.340;2022-12-08T07:16:15;205.30;2252.80
54796;DHT22;40693;43.884;20.340;2022-12-08T07:18:41;205.30;2252.80
54796;DHT22;40693;43.884;20.340;2022-12-08T07:21:08;205.40;2252.80
54796;DHT22;40693;43.884;20.340;2022-12-08T07:23:34;205.40;2252.80
54796;DHT22;40693;43.884;20.340;2022-12-08T07:26:00;205.20;2252.80
54796;DHT22;40693;43.884;20.340;2022-12-08T07:28:28;205.50;2252.80
54796;DHT22;40693;43.884;20.340;2022-12-08T07:30:54;205.50;2252.80
54796;DHT22;40693;43.884;20.340;2022-12-08T07:33:19;205.50;2252.80
54796;DHT22;40693;43.884;20.340;2022-12-08T07:35:52;205.50;2252.80
54796;DHT22;40693;43.884;20.340;2022-12-08T07:38:17;205.60;2252.80
54796;DHT22;40693;43.884;20.340;2022-12-08T07:40:43;205.60;2252.80
54796;DHT22;40693;43.884;20.340;2022-12-08T07:43:09;205.70;2252.80
54796;DHT22;40693;43.884;20.340;2022-12-08T07:45:34;205.70;2252.80
54796;DHT22;40693;43.884;20.340;2022-12-08T07:48:00;205.70;2252.80
54796;DHT22;40693;43.884;20.340;2022-12-08T07:50:25;230.40;2252.80
54796;DHT22;40693;43.884;20.340;2022-12-08T07:52:51;230.40;2252.80
54796;DHT22;40693;43.884;20.340;2022-12-08T07:55:17;230.40;2252.80
54796;DHT22;40693;43.884;20.340;2022-12-08T07:57:42;230.50;2252.80
54796;DHT22;40693;43.884;20.340;2022-12-08T08:00:09;230.50;2252.80
54796;DHT22;40693;43.884;20.340;2022-12-08T08:02:34;230.40;2252.80
54796;DHT22;40693;43.884;20.340;2022-12-08T08:05:00;230.40;2252.80
54796;DHT22;40693;43.884;20.340;2022-12-08T08:07:26;230.40;2252.80
54796;DHT22;40693;43.884;20.340;2022-12-08T08:09:52;230.40;2252.80
54796;DHT22;40693;43.884;20.340;2022-12-08T08:12:17;230.40;2252.80
54796;DHT22;40693;43.884;20.340;2022-12-08T08:14:43;230.50;2252.80
54796;DHT22;40693;43.884;20.340;2022-12-08T08:17:08;230.50;2252.80
54796;DHT22;40693;43.884;20.340;2022-12-08T08:19:34;230.50;2252.80
54796;DHT22;40693;43.884;20.340;2022-12-08T08:22:00;230.60;2252.80
54796;DHT22;40693;43.884;20.340;2022-12-08T08:24:31;230.60;2252.80
54796;DHT22;40693;43.884;20.340;2022-12-08T08:26:57;230.70;2252.80
54796;DHT22;40693;43.884;20.340;2022-12-08T08:29:22;230.60;2252.80
54796;DHT22;40693;43.884;20.340;2022-12-08T08:31:48;230.60;2252.80
54796;DHT22;40693;43.884;20.340;2022-12-08T08:34:14;230.60;2252.80
54796;DHT22;40693;43.884;20.340;2022-12-08T08:36:39;230.80;2252.80
54796;DHT22;40693;43.884;20.340;2022-12-08T08:39:05;230.70;2252.80
54796;DHT22;40693;43.884;20.340;2022-12-08T08:41:31;230.80;2252.80
54796;DHT22;40693;43.884;20.340;2022-12-08T08:43:56;230.80;2252.80
54796;DHT22;40693;43.884;20.340;2022-12-08T08:46:22;230.90;2252.80
54796;DHT22;40693;43.884;20.340;2022-12-08T08:48:48;230.90;2252.80
54796;DHT22;40693;43.884;20.340;2022-12-08T08:51:13;230.90;2252.80
54796;DHT22;40693;43.884;20.340;2022-12-08T08:53:39;230.90;2252.80
54796;DHT22;40693;43.884;20.340;2022-12-08T08:56:14;230.90;2252.80
54796;DHT22;40693;43.884;20.340;2022-12-08T08:58:40;230.90;2252.80
54796;DHT22;40693;43.884;20.340;2022-12-08T09:01:06;230.90;2252.80
54796;DHT22;40693;43.884;20.340;2022-12-08T09:03:32;230.90;2252.80
54796;DHT22;40693;43.884;20.340;2022-12-08T09:05:58;230.90;2252.80
54796;DHT22;40693;43.884;20.340;2022-12-08T09:08:23;230.90;2252.80
54796;DHT22;40693;43.884;20.340;2022-12-08T09:10:49;231.00;2252.80
54796;DHT22;40693;43.884;20.340;2022-12-08T09:13:15;230.90;2252.80
54796;DHT22;40693;43.884;20.340;2022-12-08T09:15:40;230.90;2252.80
54796;DHT22;40693;43.884;20.340;2022-12-08T09:18:06;230.90;2252.80
54796;DHT22;40693;43.884;20.340;2022-12-08T09:20:33;230.90;2252.80
54796;DHT22;40693;43.884;20.340;2022-12-08T09:22:58;230.90;2252.80
54796;DHT22;40693;43.884;20.340;2022-12-08T09:25:24;230.80;2252.80
54796;DHT22;40693;43.884;20.340;2022-12-08T09:27:49;230.80;2252.80
54796;DHT22;40693;43.884;20.340;2022-12-08T09:30:15;230.70;2252.80
54796;DHT22;40693;43.884;20.340;2022-12-08T09:32:40;230.70;2252.80
54796;DHT22;40693;43.884;20.340;2022-12-08T09:35:06;230.80;2252.80
54796;DHT22;40693;43.884;20.340;2022-12-08T09:37:32;230.80;2252.80
54796;DHT22;40693;43.884;20.340;2022-12-08T09:39:57;230.80;2252.80
54796;DHT22;40693;43.884;20.340;2022-12-08T09:42:43;230.80;2252.80
54796;DHT22;40693;43.884;20.340;2022-12-08T09:45:12;230.80;2252.80
54796;DHT22;40693;43.884;20.340;2022-12-08T09:47:41;230.80;2252.80
54796;DHT22;40693;43.884;20.340;2022-12-08T09:50:31;230.80;2252.80
54796;DHT22;40693;43.884;20.340;2022-12-08T09:53:02;230.80;2252.80
54796;DHT22;40693;43.884;20.340;2022-12-08T09:55:51;230.90;2252.80
54796;DHT22;40693;43.884;20.340;2022-12-08T09:58:18;230.90;2252.80
54796;DHT22;40693;43.884;20.340;2022-12-08T10:00:45;230.90;2252.80
54796;DHT22;40693;43.884;20.340;2022-12-08T10:03:11;230.90;2252.80
54796;DHT22;40693;43.884;20.340;2022-12-08T10:05:38;231.00;2252.80
54796;DHT22;40693;43.884;20.340;2022-12-08T10:08:18;231.00;2252.80
54796;DHT22;40693;43.884;20.340;2022-12-08T10:10:52;231.00;2252.80
54796;DHT22;40693;43.884;20.340;2022-12-08T10:13:30;231.00;2252.80
54796;DHT22;40693;43.884;20.340;2022-12-08T10:18:36;230.90;2252.80
54796;DHT22;40693;43.884;20.340;2022-12-08T10:23:40;231.00;2252.80
54796;DHT22;40693;43.884;20.340;2022-12-08T10:26:12;231.00;2252.80
54796;DHT22;40693;43.884;20.340;2022-12-08T10:28:37;231.00;2252.80
54796;DHT22;40693;43.884;20.340;2022-12-08T10:31:03;231.00;2252.80
54796;DHT22;40693;43.884;20.340;2022-12-08T10:33:29;230.90;2252.80
54796;DHT22;40693;43.884;20.340;2022-12-08T10:35:56;231.00;2252.80
54796;DHT22;40693;43.884;20.340;2022-12-08T10:38:35;231.00;2252.80
54796;DHT22;40693;43.884;20.340;2022-12-08T10:43:37;230.90;2252.80
54796;DHT22;40693;43.884;20.340;2022-12-08T10:46:10;230.80;2252.80
54796;DHT22;40693;43.884;20.340;2022-12-08T10:48:36;230.80;2252.80
54796;DHT22;40693;43.884;20.340;2022-12-08T10:51:20;230.80;2252.80
54796;DHT22;40693;43.884;20.340;2022-12-08T10:53:46;230.80;2252.80
54796;DHT22;40693;43.884;20.340;2022-12-08T10:56:15;230.90;2252.80
54796;DHT22;40693;43.884;20.340;2022-12-08T10:58:44;230.80;2252.80
54796;DHT22;40693;43.884;20.340;2022-12-08T11:06:17;230.90;2252.80
54796;DHT22;40693;43.884;20.340;2022-12-08T11:08:47;230.90;2252.80
54796;DHT22;40693;43.884;20.340;2022-12-08T11:11:15;231.00;2252.80
54796;DHT22;40693;43.884;20.340;2022-12-08T11:13:40;231.00;2252.80
54796;DHT22;40693;43.884;20.340;2022-12-08T11:16:06;231.00;2252.80
54796;DHT22;40693;43.884;20.340;2022-12-08T11:18:39;231.00;2252.80
54796;DHT22;40693;43.884;20.340;2022-12-08T11:21:06;231.00;2252.80
54796;DHT22;40693;43.884;20.340;2022-12-08T11:23:34;231.00;2252.80
54796;DHT22;40693;43.884;20.340;2022-12-08T11:26:03;231.00;2252.80
54796;DHT22;40693;43.884;20.340;2022-12-08T11:28:29;231.00;2252.80
54796;DHT22;40693;43.884;20.340;2022-12-08T11:31:38;231.00;2252.80
54796;DHT22;40693;43.884;20.340;2022-12-08T11:33:44;231.00;2252.80
54796;DHT22;40693;43.884;20.340;2022-12-08T11:36:10;230.50;2252.80
54796;DHT22;40693;43.884;20.340;2022-12-08T11:38:40;230.90;2252.80
54796;DHT22;40693;43.884;20.340;2022-12-08T11:46:54;230.90;2252.80
54796;DHT22;40693;43.884;20.340;2022-12-08T11:49:37;230.90;2252.80
54796;DHT22;40693;43.884;20.340;2022-12-08T11:54:41;231.00;2252.80
54796;DHT22;40693;43.884;20.340;2022-12-08T11:57:12;230.90;2252.80
54796;DHT22;40693;43.884;20.340;2022-12-08T11:59:47;230.90;2252.80
54796;DHT22;40693;43.884;20.340;2022-12-08T12:04:53;231.00;2252.80
54796;DHT22;40693;43.884;20.340;2022-12-08T12:10:11;231.00;2252.80
54796;DHT22;40693;43.884;20.340;2022-12-08T12:20:11;231.10;2252.80
54796;DHT22;40693;43.884;20.340;2022-12-08T12:22:39;231.20;2252.80
54796;DHT22;40693;43.884;20.340;2022-12-08T12:25:13;231.20;2252.80
54796;DHT22;40693;43.884;20.340;2022-12-08T12:27:40;231.20;2252.80
54796;DHT22;40693;43.884;20.340;2022-12-08T12:30:07;231.20;2252.80
54796;DHT22;40693;43.884;20.340;2022-12-08T12:32:40;231.30;2252.80
54796;DHT22;40693;43.884;20.340;2022-12-08T12:35:13;231.20;2252.80
54796;DHT22;40693;43.884;20.340;2022-12-08T12:37:40;231.20;2252.80
54796;DHT22;40693;43.884;20.340;2022-12-08T12:40:28;231.30;2252.80
54796;DHT22;40693;43.884;20.340;2022-12-08T12:47:47;231.30;2252.80
54796;DHT22;40693;43.884;20.340;2022-12-08T12:50:23;256.00;2252.80
54796;DHT22;40693;43.884;20.340;2022-12-08T12:53:01;256.00;2252.80
54796;DHT22;40693;43.884;20.340;2022-12-08T12:58:19;256.00;2252.80
54796;DHT22;40693;43.884;20.340;2022-12-08T13:00:44;256.00;2252.80
54796;DHT22;40693;43.884;20.340;2022-12-08T13:03:12;256.00;2252.80
54796;DHT22;40693;43.884;20.340;2022-12-08T13:05:45;256.00;2252.80
54796;DHT22;40693;43.884;20.340;2022-12-08T13:08:22;231.30;2252.80
54796;DHT22;40693;43.884;20.340;2022-12-08T13:13:23;256.10;2252.80
54796;DHT22;40693;43.884;20.340;2022-12-08T13:18:20;256.10;2252.80
54796;DHT22;40693;43.884;20.340;2022-12-08T13:20:57;256.10;2252.80
54796;DHT22;40693;43.884;20.340;2022-12-08T13:36:39;256.00;2252.80
54796;DHT22;40693;43.884;20.340;2022-12-08T13:39:06;256.10;2252.80
54796;DHT22;40693;43.884;20.340;2022-12-08T13:41:41;256.00;2252.80
54796;DHT22;40693;43.884;20.340;2022-12-08T13:44:15;256.00;2252.80
54796;DHT22;40693;43.884;20.340;2022-12-08T13:46:48;256.00;2252.80
54796;DHT22;40693;43.884;20.340;2022-12-08T13:49:15;256.00;2252.80
54796;DHT22;40693;43.884;20.340;2022-12-08T13:51:42;256.10;2252.80
54796;DHT22;40693;43.884;20.340;2022-12-08T13:56:53;256.20;2252.80
54796;DHT22;40693;43.884;20.340;2022-12-08T14:01:49;256.30;2252.80
54796;DHT22;40693;43.884;20.340;2022-12-08T14:04:17;256.30;2252.80
54796;DHT22;40693;43.884;20.340;2022-12-08T14:06:44;256.30;2252.80
54796;DHT22;40693;43.884;20.340;2022-12-08T14:09:11;256.20;2252.80
54796;DHT22;40693;43.884;20.340;2022-12-08T14:11:39;256.20;2252.80
54796;DHT22;40693;43.884;20.340;2022-12-08T14:14:13;256.30;2252.80
54796;DHT22;40693;43.884;20.340;2022-12-08T14:16:41;256.30;2252.80
54796;DHT22;40693;43.884;20.340;2022-12-08T14:19:17;256.20;2252.80
54796;DHT22;40693;43.884;20.340;2022-12-08T14:21:50;256.20;2252.80
54796;DHT22;40693;43.884;20.340;2022-12-08T14:24:15;256.20;2252.80
54796;DHT22;40693;43.884;20.340;2022-12-08T14:26:41;256.20;2252.80
54796;DHT22;40693;43.884;20.340;2022-12-08T14:29:10;256.20;2252.80
54796;DHT22;40693;43.884;20.340;2022-12-08T14:31:40;256.20;2252.80
54796;DHT22;40693;43.884;20.340;2022-12-08T14:34:05;256.10;2252.80
54796;DHT22;40693;43.884;20.340;2022-12-08T14:36:31;256.10;2252.80
54796;DHT22;40693;43.884;20.340;2022-12-08T14:38:58;256.10;2252.80
54796;DHT22;40693;43.884;20.340;2022-12-08T14:41:24;256.10;2252.80
54796;DHT22;40693;43.884;20.340;2022-12-08T14:44:00;256.10;2252.80
54796;DHT22;40693;43.884;20.340;2022-12-08T14:46:26;256.10;2252.80
54796;DHT22;40693;43.884;20.340;2022-12-08T14:48:52;256.00;2252.80
54796;DHT22;40693;43.884;20.340;2022-12-08T14:57:04;256.00;2252.80
54796;DHT22;40693;43.884;20.340;2022-12-08T14:59:29;256.00;2252.80
54796;DHT22;40693;43.884;20.340;2022-12-08T15:04:43;256.00;2252.80
54796;DHT22;40693;43.884;20.340;2022-12-08T15:09:37;256.00;2252.80
54796;DHT22;40693;43.884;20.340;2022-12-08T15:12:04;256.00;2252.80
54796;DHT22;40693;43.884;20.340;2022-12-08T15:14:31;256.00;2252.80
54796;DHT22;40693;43.884;20.340;2022-12-08T15:16:57;256.00;2252.80
54796;DHT22;40693;43.884;20.340;2022-12-08T15:21:53;256.00;2252.80
54796;DHT22;40693;43.884;20.340;2022-12-08T15:24:21;256.00;2252.80
54796;DHT22;40693;43.884;20.340;2022-12-08T15:26:50;256.00;2252.80
54796;DHT22;40693;43.884;20.340;2022-12-08T15:29:23;231.30;2252.80
54796;DHT22;40693;43.884;20.340;2022-12-08T15:31:50;231.30;2252.80
54796;DHT22;40693;43.884;20.340;2022-12-08T15:34:17;231.20;2252.80
54796;DHT22;40693;43.884;20.340;2022-12-08T15:36:44;231.30;2252.80
54796;DHT22;40693;43.884;20.340;2022-12-08T15:41:54;231.00;2252.80
54796;DHT22;40693;43.884;20.340;2022-12-08T15:44:20;231.00;2252.80
54796;DHT22;40693;43.884;20.340;2022-12-08T15:46:45;230.90;2252.80
54796;DHT22;40693;43.884;20.340;2022-12-08T15:49:14;230.80;2252.80
54796;DHT22;40693;43.884;20.340;2022-12-08T15:51:40;230.80;2252.80
54796;DHT22;40693;43.884;20.340;2022-12-08T15:54:06;230.80;2252.80
54796;DHT22;40693;43.884;20.340;2022-12-08T15:56:32;230.70;2252.80
54796;DHT22;40693;43.884;20.340;2022-12-08T15:58:58;230.70;2252.80
54796;DHT22;40693;43.884;20.340;2022-12-08T16:01:24;230.80;2252.80
54796;DHT22;40693;43.884;20.340;2022-12-08T16:03:50;230.80;2252.80
54796;DHT22;40693;43.884;20.340;2022-12-08T16:06:17;230.90;2252.80
54796;DHT22;40693;43.884;20.340;2022-12-08T16:08:43;231.00;2252.80
54796;DHT22;40693;43.884;20.340;2022-12-08T16:11:09;231.00;2252.80
54796;DHT22;40693;43.884;20.340;2022-12-08T16:13:53;231.00;2252.80
54796;DHT22;40693;43.884;20.340;2022-12-08T16:16:19;231.10;2252.80
54796;DHT22;40693;43.884;20.340;2022-12-08T16:18:48;231.10;2252.80
54796;DHT22;40693;43.884;20.340;2022-12-08T16:21:15;231.20;2252.80
54796;DHT22;40693;43.884;20.340;2022-12-08T16:23:41;231.30;2252.80
54796;DHT22;40693;43.884;20.340;2022-12-08T16:26:10;231.30;2252.80
54796;DHT22;40693;43.884;20.340;2022-12-08T16:28:36;231.30;2252.80
54796;DHT22;40693;43.884;20.340;2022-12-08T16:31:02;231.30;2252.80
54796;DHT22;40693;43.884;20.340;2022-12-08T16:33:27;231.30;2252.80
54796;DHT22;40693;43.884;20.340;2022-12-08T16:35:53;231.30;2252.80